Log Lane Village, CO

2:18 AM MDT on July 31, 2014 (GMT -0600)
Front Range (KFTG) Elev 5512 ft | 39.79 °N, 104.54 °W | Change Station

Current weather conditions updated 22 minutes ago

Overcast
Overcast
59 °F
Feels Like 59 °F
N
8
Wind Variable Wind from SSW

Today is forecast to be Much Warmer than yesterday.

Today
High -- | Low -- °F
--% Chance of Precip.
Yesterday
High -- | Low -- °F
Precip. -- in
5:52 AM 8:10 PM
Waxing Crescent, 17% visible
Pressure 30.31 in
Visibility 10.0 miles
Clouds Scattered Clouds 9000 ft
Overcast 12000 ft
Dew Point 57 °F
Humidity 94%
Rainfall 0.00 in
Snow Depth Not available.
UV 0 out of 12
Pollen .80 out of 12
Air Quality Not available.
Flu Activity Not available.
METAR KFTG 310756Z AUTO 20007KT 10SM SCT090 OVC120 15/14 A3031 RMK AO2

More Conditions Fewer Conditions

Pressure 30.31 in
Visibility 10.0 miles
Clouds Scattered Clouds 9000 ft
Overcast 12000 ft
Dew Point 57 °F
Humidity 94%
Rainfall 0.00 in
Snow Depth Not available.
UV 0 out of 12
Pollen .80 out of 12
Air Quality Not available.
Flu Activity Not available.
METAR KFTG 310756Z AUTO 20007KT 10SM SCT090 OVC120 15/14 A3031 RMK AO2

More Conditions Fewer Conditions

10-Day Weather Forecast

Almanac

Astronomy

Jul. 31, 2014 Rise Set
Actual Time 5:52 AM MDT 8:10 PM MDT
Civil Twilight 5:21 AM MDT 8:41 PM MDT
Nautical Twilight 4:43 AM MDT 9:18 PM MDT
Astronomical Twilight 4:02 AM MDT 9:59 PM MDT
Moon 10:22 AM MDT 10:24 PM MDT
Length of Visible Light 15h 19m
Length of Day
14h 18m
Tomorrow will be 1m 59s shorter.
Waxing Crescent, 17% of the Moon is Illuminated
Today
Waxing Crescent
Aug 3
First Quarter
Aug 10
Full
Aug 17
Last Quarter
Aug 25
New

Today's Extremes

State Highs State Lows

Community

WunderPhotos

Upload Photos

1,739,258 photos uploaded!

Nearby

Snow Depth

Station Depth Elevation
Copeland Lake 0 in 8600 ft
University Camp 0 in 10300 ft
Wild Basin 1 in 9560 ft
Willow Park 0 in 10700 ft
Echo Lake 0 in 10600 ft

Earthquake Activity

City Distance Mag. Time & Date
No recent earthquake activity has been reported nearby.
Minimum magnitude displayed is 2.5.

Coastal Water Temperatures

Place Temperature
No Stations Reporting

Nearby Weather Stations

Station Location Temp. Dew Point Humidity Wind Precip. Elev Updated Type
Fort Morgan, Fort Morgan, CO 60.1 °F 60 °F 99% SW  at  1.6 mph 0.00 in / hr 4327 ft 2:18 AM MDT Rapid Fire

Show More Stations Show Fewer Stations